Weather History for Bentonville, AR

Change the Weather History Date:

Friday, October 25, 2013

  Actual Average Record
Temperature  
Mean Temperature 46 °F -  
Max Temperature 57 °F 67 °F 86 °F (1950)
Min Temperature 35 °F 41 °F 25 °F (1981)
Degree Days  
Heating Degree Days 19    
Moisture  
Dew Point 27 °F    
Average Humidity 52    
Maximum Humidity 70    
Minimum Humidity 29    
Precipitation  
Precipitation 0.00 in - - ()
Sea Level Pressure  
Sea Level Pressure 30.38 in    
Wind  
Wind Speed 5 mph (SE)    
Max Wind Speed 15 mph    
Max Gust Speed 18 mph    
Visibility 10 miles    
Events      
Averages and records for this station are not official NWS values.
T = Trace of Precipitation, MM = Missing Value Source: NWS Daily Summary

Daily Weather History Graph

Daily Weather History Graph

Search for Another Location

Airport:

Trip Planner

Search our weather history database for the weather conditions in past years. The results will help you decide how hot, cold, wet, or windy it might be!

Date:

Astronomy

Oct. 25, 2013 Rise Set
Actual Time 7:33 AM CDT 6:27 PM CDT
Civil Twilight 7:07 AM CDT 6:54 PM CDT
Nautical Twilight 6:36 AM CDT 7:24 PM CDT
Astronomical Twilight 6:07 AM CDT 7:54 PM CDT
Moon 11:50 PM CDT (10/25) 1:11 PM CDT (10/25)
Length of Visible Light 11h 47m
Length of Day
10h 54m
Waning Gibbous, 62% of the Moon is Illuminated
Oct 25
Waning Gibbous
Oct 26
Last Quarter
Nov 3
New
Nov 9
First Quarter
Nov 17
Full

Hourly Weather History & Observations

Time (CDT) Temp. Windchill Dew Point Humidity Pressure Visibility Wind Dir Wind Speed Gust Speed Precip Events Conditions
12:15 AM 37.4 °F 34.9 °F 26.6 °F 65% 30.40 in 10.0 mi NE 3.5 mph - N/A   Clear
12:35 AM 37.4 °F - 26.6 °F 65% 30.40 in 10.0 mi Calm Calm - N/A   Clear
12:55 AM 37.4 °F 32.8 °F 26.6 °F 65% 30.40 in 1.2 mi ENE 5.8 mph - N/A   Clear
1:15 AM 37.4 °F 32.8 °F 26.6 °F 65% 30.41 in 9.0 mi ENE 5.8 mph - N/A   Clear
1:35 AM 37.4 °F 33.8 °F 26.6 °F 65% 30.41 in 10.0 mi ENE 4.6 mph - N/A   Clear
1:55 AM 37.4 °F 32.8 °F 26.6 °F 65% 30.42 in 10.0 mi East 5.8 mph - N/A   Clear
2:15 AM 37.4 °F 32.8 °F 26.6 °F 65% 30.42 in 10.0 mi East 5.8 mph - N/A   Clear
2:35 AM 37.4 °F 32.8 °F 26.6 °F 65% 30.42 in 7.0 mi East 5.8 mph - N/A   Clear
2:55 AM 37.4 °F 32.1 °F 26.6 °F 65% 30.42 in 10.0 mi East 6.9 mph - N/A   Clear
3:15 AM 37.4 °F 32.8 °F 28.4 °F 70% 30.42 in 10.0 mi East 5.8 mph - N/A   Clear
3:35 AM 37.4 °F 33.8 °F 28.4 °F 70% 30.42 in 10.0 mi East 4.6 mph - N/A   Clear
3:55 AM 37.4 °F 34.9 °F 28.4 °F 70% 30.43 in 10.0 mi East 3.5 mph - N/A   Clear
4:15 AM 37.4 °F 34.9 °F 28.4 °F 70% 30.43 in 10.0 mi East 3.5 mph - N/A   Clear
4:35 AM 37.4 °F 33.8 °F 26.6 °F 65% 30.43 in 10.0 mi ESE 4.6 mph - N/A   Clear
4:55 AM 37.4 °F 32.1 °F 26.6 °F 65% 30.44 in 10.0 mi East 6.9 mph - N/A   Clear
5:15 AM 37.4 °F 32.1 °F 26.6 °F 65% 30.44 in 10.0 mi East 6.9 mph - N/A   Clear
5:35 AM 37.4 °F 32.8 °F 24.8 °F 60% 30.44 in 10.0 mi East 5.8 mph - N/A   Clear
5:55 AM 37.4 °F 32.8 °F 24.8 °F 60% 30.44 in 10.0 mi East 5.8 mph - N/A   Clear
6:15 AM 37.4 °F 34.9 °F 24.8 °F 60% 30.45 in 10.0 mi East 3.5 mph - N/A   Clear
6:35 AM 35.6 °F 32.8 °F 26.6 °F 70% 30.45 in 10.0 mi East 3.5 mph - N/A   Clear
6:55 AM 35.6 °F 32.8 °F 26.6 °F 70% 30.44 in 10.0 mi East 3.5 mph - N/A   Clear
7:15 AM 35.6 °F - 26.6 °F 70% 30.45 in 10.0 mi Calm Calm - N/A   Clear
7:35 AM 35.6 °F 32.8 °F 26.6 °F 70% 30.44 in 10.0 mi ESE 3.5 mph - N/A   Clear
7:55 AM 35.6 °F 31.7 °F 26.6 °F 70% 30.45 in 10.0 mi SE 4.6 mph - N/A   Clear
8:15 AM 35.6 °F 32.8 °F 26.6 °F 70% 30.46 in 10.0 mi ESE 3.5 mph - N/A   Clear
8:35 AM 39.2 °F 35.0 °F 26.6 °F 61% 30.46 in 10.0 mi SE 5.8 mph - N/A   Clear
8:55 AM 39.2 °F 34.2 °F 28.4 °F 65% 30.47 in 10.0 mi ESE 6.9 mph - N/A   Clear
9:15 AM 42.8 °F 38.0 °F 26.6 °F 53% 30.47 in 10.0 mi ESE 8.1 mph - N/A   Clear
9:35 AM 44.6 °F 39.2 °F 26.6 °F 49% 30.48 in 10.0 mi ESE 10.4 mph - N/A   Clear
9:55 AM 44.6 °F 37.8 °F 24.8 °F 46% 30.48 in 10.0 mi SE 15.0 mph - N/A   Clear
10:15 AM 46.4 °F 40.4 °F 24.8 °F 43% 30.48 in 10.0 mi ESE 13.8 mph 18.4 mph N/A   Clear
10:35 AM 46.4 °F 40.4 °F 23.0 °F 40% 30.48 in 10.0 mi ESE 13.8 mph - N/A   Clear
10:55 AM 48.2 °F - 24.8 °F 40% 30.47 in 10.0 mi ESE 13.8 mph - N/A   Clear
11:15 AM 48.2 °F - 26.6 °F 43% 30.47 in 10.0 mi ESE 10.4 mph - N/A   Clear
11:35 AM 50.0 °F - 26.6 °F 40% 30.46 in 10.0 mi SE 12.7 mph 16.1 mph N/A   Clear
11:55 AM 50.0 °F - 26.6 °F 40% 30.46 in 10.0 mi SSE 8.1 mph - N/A   Clear
12:15 PM 51.8 °F - 26.6 °F 38% 30.45 in 10.0 mi ESE 8.1 mph - N/A   Clear
12:35 PM 53.6 °F - 28.4 °F 38% 30.44 in 10.0 mi ESE 6.9 mph - N/A   Clear
12:55 PM 53.6 °F - 28.4 °F 38% 30.42 in 10.0 mi SE 8.1 mph - N/A   Clear
1:15 PM 53.6 °F - 28.4 °F 38% 30.41 in 10.0 mi SE 8.1 mph - N/A   Clear
1:35 PM 53.6 °F - 26.6 °F 35% 30.40 in 10.0 mi SE 4.6 mph - N/A   Clear
1:55 PM 55.4 °F - 26.6 °F 33% 30.38 in 10.0 mi SE 5.8 mph - N/A   Clear
2:15 PM 55.4 °F - 24.8 °F 31% 30.37 in 10.0 mi South 5.8 mph - N/A   Clear
2:35 PM 55.4 °F - 23.0 °F 29% 30.36 in 10.0 mi SE 5.8 mph - N/A   Clear
2:55 PM 55.4 °F - 24.8 °F 31% 30.35 in 10.0 mi SSE 5.8 mph - N/A   Clear
3:15 PM 57.2 °F - 24.8 °F 29% 30.35 in 10.0 mi SW 3.5 mph - N/A   Clear
3:35 PM 57.2 °F - 24.8 °F 29% 30.34 in 10.0 mi West 4.6 mph - N/A   Clear
3:55 PM 57.2 °F - 26.6 °F 31% 30.33 in 10.0 mi SW 5.8 mph - N/A   Clear
4:15 PM 57.2 °F - 26.6 °F 31% 30.33 in 10.0 mi South 4.6 mph - N/A   Clear
4:35 PM 57.2 °F - 28.4 °F 33% 30.32 in 10.0 mi SSE 4.6 mph - N/A   Clear
4:55 PM 57.2 °F - 28.4 °F 33% 30.31 in 10.0 mi SSE 5.8 mph - N/A   Clear
5:15 PM 57.2 °F - 28.4 °F 33% 30.30 in 10.0 mi SSW 5.8 mph - N/A   Clear
5:35 PM 57.2 °F - 28.4 °F 33% 30.30 in 10.0 mi SSW 6.9 mph - N/A   Clear
5:55 PM 55.4 °F - 30.2 °F 38% 30.30 in 10.0 mi SW 5.8 mph - N/A   Clear
6:15 PM 53.6 °F - 30.2 °F 41% 30.29 in 10.0 mi SSW 4.6 mph - N/A   Clear
6:35 PM 51.8 °F - 30.2 °F 44% 30.28 in 10.0 mi SSW 5.8 mph - N/A   Clear
6:55 PM 51.8 °F - 30.2 °F 44% 30.29 in 10.0 mi SSW 6.9 mph - N/A   Clear
7:15 PM 50.0 °F - 30.2 °F 47% 30.28 in 10.0 mi South 5.8 mph - N/A   Clear
7:35 PM 48.2 °F - 28.4 °F 46% 30.28 in 10.0 mi South 6.9 mph - N/A   Clear
7:55 PM 48.2 °F - 30.2 °F 50% 30.28 in 10.0 mi South 5.8 mph - N/A   Clear
8:15 PM 46.4 °F 43.5 °F 30.2 °F 53% 30.28 in 10.0 mi South 5.8 mph - N/A   Clear
8:35 PM 46.4 °F 43.5 °F 30.2 °F 53% 30.27 in 10.0 mi South 5.8 mph - N/A   Clear
8:55 PM 46.4 °F 43.5 °F 28.4 °F 50% 30.26 in 10.0 mi South 5.8 mph - N/A   Clear
9:15 PM 44.6 °F 42.2 °F 28.4 °F 53% 30.26 in 10.0 mi South 4.6 mph - N/A   Clear
9:35 PM 44.6 °F 42.2 °F 28.4 °F 53% 30.26 in 10.0 mi South 4.6 mph - N/A   Clear
9:55 PM 44.6 °F 42.2 °F 28.4 °F 53% 30.25 in 10.0 mi South 4.6 mph - N/A   Clear
10:15 PM 42.8 °F 40.1 °F 28.4 °F 57% 30.25 in 10.0 mi South 4.6 mph - N/A   Clear
10:35 PM 42.8 °F 40.1 °F 28.4 °F 57% 30.24 in 10.0 mi South 4.6 mph - N/A   Clear
10:55 PM 42.8 °F 40.1 °F 30.2 °F 61% 30.24 in 10.0 mi SSE 4.6 mph - N/A   Clear
11:15 PM 42.8 °F 40.1 °F 30.2 °F 61% 30.23 in 10.0 mi South 4.6 mph - N/A   Clear
11:35 PM 42.8 °F 40.1 °F 30.2 °F 61% 30.22 in 10.0 mi SSE 4.6 mph - N/A   Clear
11:55 PM 42.8 °F 41.1 °F 30.2 °F 61% 30.21 in 10.0 mi SSE 3.5 mph - N/A   Clear